createdAt,value
2022-08-17T00:00:53.922Z,1.60
2022-08-17T00:01:58.158Z,1.64
2022-08-17T00:03:02.833Z,2.06
2022-08-17T00:04:10.753Z,2.00
2022-08-17T00:05:09.826Z,1.79
2022-08-17T00:06:12.595Z,1.80
2022-08-17T00:07:15.161Z,1.51
2022-08-17T00:08:17.731Z,1.59
2022-08-17T00:09:20.299Z,1.48
2022-08-17T00:10:22.964Z,1.50
2022-08-17T00:11:25.637Z,1.66
2022-08-17T00:12:41.808Z,1.52
2022-08-17T00:13:32.419Z,1.54
2022-08-17T00:14:35.160Z,1.49
2022-08-17T00:15:37.749Z,1.48
2022-08-17T00:16:55.348Z,1.54
2022-08-17T00:17:44.524Z,1.52
2022-08-17T00:19:03.842Z,1.47
2022-08-17T00:19:51.194Z,1.38
2022-08-17T00:20:53.863Z,1.66
2022-08-17T00:22:35.078Z,1.52
2022-08-17T00:23:00.537Z,1.41
2022-08-17T00:24:03.308Z,1.52
2022-08-17T00:25:05.978Z,1.61
2022-08-17T00:26:08.540Z,1.44
2022-08-17T00:27:11.318Z,1.56
2022-08-17T00:28:14.189Z,1.56
2022-08-17T00:29:19.926Z,1.72
2022-08-17T00:30:21.167Z,1.63
2022-08-17T00:31:23.841Z,1.75
2022-08-17T00:33:12.501Z,1.76
2022-08-17T00:33:31.177Z,1.71
2022-08-17T00:34:34.204Z,1.56
2022-08-17T00:35:36.974Z,1.65
2022-08-17T00:36:39.747Z,1.34
2022-08-17T00:37:42.417Z,1.67
2022-08-17T00:38:45.191Z,2.02
2022-08-17T00:39:47.905Z,1.92
2022-08-17T00:40:50.641Z,1.44
2022-08-17T00:41:54.531Z,1.81
2022-08-17T00:42:58.839Z,2.04
2022-08-17T00:44:01.505Z,1.76
2022-08-17T00:45:04.206Z,1.67
2022-08-17T00:46:06.857Z,1.47
2022-08-17T00:47:09.519Z,1.42
2022-08-17T00:48:29.285Z,1.44
2022-08-17T00:49:16.304Z,1.68
2022-08-17T00:50:18.962Z,1.80
2022-08-17T00:51:21.535Z,1.37
2022-08-17T00:52:24.305Z,1.78
2022-08-17T00:53:26.986Z,1.53
2022-08-17T00:54:29.654Z,1.58
2022-08-17T00:55:32.312Z,1.72
2022-08-17T00:56:34.984Z,1.54
2022-08-17T00:57:37.853Z,1.55
2022-08-17T00:58:40.523Z,2.05
2022-08-17T00:59:43.193Z,1.85
2022-08-17T01:00:45.818Z,2.62
2022-08-17T01:01:48.536Z,1.98
2022-08-17T01:02:51.103Z,1.92
2022-08-17T01:03:53.872Z,1.55
2022-08-17T01:04:58.088Z,1.49
2022-08-17T01:06:00.758Z,1.82
2022-08-17T01:07:03.629Z,1.61
2022-08-17T01:08:06.392Z,2.27
2022-08-17T01:09:09.177Z,1.55
2022-08-17T01:10:58.690Z,1.89
2022-08-17T01:11:16.043Z,2.05
2022-08-17T01:12:18.916Z,2.48
2022-08-17T01:13:21.583Z,1.54
2022-08-17T01:14:24.588Z,1.38
2022-08-17T01:15:27.032Z,1.39
2022-08-17T01:16:30.013Z,1.46
2022-08-17T01:17:32.573Z,1.71
2022-08-17T01:18:35.243Z,1.18
2022-08-17T01:19:38.122Z,1.48
2022-08-17T01:20:47.926Z,1.26
2022-08-17T01:21:45.202Z,1.25
2022-08-17T01:22:48.177Z,1.34
2022-08-17T01:23:51.063Z,1.16
2022-08-17T01:24:53.926Z,1.31
2022-08-17T01:25:56.590Z,1.50
2022-08-17T01:26:59.363Z,2.03
2022-08-17T01:28:02.655Z,1.53
2022-08-17T01:29:05.218Z,1.40
2022-08-17T01:30:57.225Z,1.31
2022-08-17T01:31:12.400Z,1.14
2022-08-17T01:32:15.071Z,1.40
2022-08-17T01:33:17.742Z,1.03
2022-08-17T01:34:20.436Z,1.34
2022-08-17T01:35:23.087Z,1.98
2022-08-17T01:36:25.645Z,1.44
2022-08-17T01:37:28.458Z,1.08
2022-08-17T01:38:30.988Z,1.06
2022-08-17T01:39:33.643Z,1.15
2022-08-17T01:40:36.238Z,1.06
2022-08-17T01:41:38.912Z,1.02
2022-08-17T01:42:41.463Z,1.32
2022-08-17T01:43:44.130Z,1.25
2022-08-17T01:44:46.810Z,1.38
2022-08-17T01:45:49.674Z,1.22
2022-08-17T01:46:53.788Z,1.22
2022-08-17T01:47:56.964Z,0.98
2022-08-17T01:48:59.630Z,1.12
2022-08-17T01:50:02.302Z,0.94
2022-08-17T01:51:04.984Z,1.11
2022-08-17T01:52:07.534Z,1.14
2022-08-17T01:53:10.206Z,1.09
2022-08-17T01:54:12.878Z,1.42
2022-08-17T01:55:15.443Z,1.20
2022-08-17T01:56:18.112Z,1.15
2022-08-17T01:57:20.485Z,1.07
2022-08-17T01:58:23.044Z,1.24
2022-08-17T01:59:25.629Z,1.08
2022-08-17T02:00:28.316Z,1.12
2022-08-17T02:01:32.513Z,1.04
2022-08-17T02:02:35.161Z,1.16
2022-08-17T02:03:37.834Z,1.14
2022-08-17T02:04:40.603Z,1.06
2022-08-17T02:05:43.372Z,1.17
2022-08-17T02:06:54.478Z,1.29
2022-08-17T02:07:59.511Z,1.39
2022-08-17T02:09:02.486Z,1.43
2022-08-17T02:09:58.562Z,1.14
2022-08-17T02:11:02.259Z,1.21
2022-08-17T02:12:37.363Z,1.27
2022-08-17T02:13:08.932Z,1.19
2022-08-17T02:14:11.702Z,1.14
2022-08-17T02:15:14.265Z,1.35
2022-08-17T02:16:18.472Z,1.42
2022-08-17T02:17:21.144Z,1.27
2022-08-17T02:18:23.811Z,1.30
2022-08-17T02:19:26.493Z,1.38
2022-08-17T02:20:41.684Z,1.54
2022-08-17T02:21:33.357Z,2.86
2022-08-17T02:22:36.024Z,1.72
2022-08-17T02:23:38.595Z,1.43
2022-08-17T02:25:00.592Z,1.55
2022-08-17T02:25:45.266Z,1.38
2022-08-17T02:26:47.849Z,1.22
2022-08-17T02:27:50.503Z,1.39
2022-08-17T02:28:53.067Z,1.46
2022-08-17T02:29:55.737Z,1.37
2022-08-17T02:31:01.301Z,1.63
2022-08-17T02:32:02.403Z,1.44
2022-08-17T02:33:06.356Z,1.50
2022-08-17T02:34:09.288Z,1.60
2022-08-17T02:35:11.953Z,1.77
2022-08-17T02:36:14.524Z,1.67
2022-08-17T02:37:17.104Z,1.69
2022-08-17T02:38:19.559Z,1.68
2022-08-17T02:39:22.223Z,1.61
2022-08-17T02:40:32.849Z,1.46
2022-08-17T02:41:28.909Z,1.54
2022-08-17T02:42:31.581Z,1.82
2022-08-17T02:43:34.333Z,1.86
2022-08-17T02:44:39.696Z,1.57
2022-08-17T02:45:41.220Z,1.63
2022-08-17T02:46:43.888Z,1.79
2022-08-17T02:47:46.554Z,1.77
2022-08-17T02:48:49.223Z,1.62
2022-08-17T02:49:54.426Z,1.76
2022-08-17T02:50:56.097Z,1.79
2022-08-17T02:51:58.771Z,1.62
2022-08-17T02:53:04.613Z,1.74
2022-08-17T02:54:40.235Z,2.01
2022-08-17T02:55:09.963Z,1.88
2022-08-17T02:56:12.629Z,1.38
2022-08-17T02:57:15.393Z,1.66
2022-08-17T02:58:18.066Z,1.74
2022-08-17T02:59:22.165Z,1.78
2022-08-17T03:00:24.829Z,1.72
2022-08-17T03:01:27.612Z,1.34
2022-08-17T03:02:30.186Z,1.53
2022-08-17T03:03:32.845Z,1.52
2022-08-17T03:04:35.666Z,1.75
2022-08-17T03:05:38.388Z,1.72
2022-08-17T03:06:41.168Z,1.62
2022-08-17T03:07:43.837Z,1.72
2022-08-17T03:08:46.507Z,1.88
2022-08-17T03:09:49.178Z,1.62
2022-08-17T03:10:51.859Z,1.78
2022-08-17T03:11:55.852Z,1.73
2022-08-17T03:12:58.611Z,1.96
2022-08-17T03:14:01.390Z,1.67
2022-08-17T03:15:04.166Z,1.63
2022-08-17T03:16:06.938Z,1.57
2022-08-17T03:17:09.706Z,1.64
2022-08-17T03:18:19.342Z,1.78
2022-08-17T03:19:17.616Z,1.65
2022-08-17T03:20:20.275Z,1.65
2022-08-17T03:21:23.061Z,1.84
2022-08-17T03:22:37.059Z,1.65
2022-08-17T03:23:30.406Z,2.01
2022-08-17T03:24:33.204Z,1.71
2022-08-17T03:25:36.396Z,1.74
2022-08-17T03:26:39.065Z,1.70
2022-08-17T03:27:42.090Z,1.71
2022-08-17T03:28:45.945Z,1.67
2022-08-17T03:29:48.705Z,1.52
2022-08-17T03:30:51.671Z,1.84
2022-08-17T03:31:54.457Z,1.92
2022-08-17T03:32:57.232Z,1.91
2022-08-17T03:34:00.108Z,1.58
2022-08-17T03:35:02.778Z,1.61
2022-08-17T03:36:05.759Z,1.67
2022-08-17T03:37:08.313Z,1.60
2022-08-17T03:38:11.097Z,1.84
2022-08-17T03:39:13.755Z,1.71
2022-08-17T03:40:16.533Z,1.71
2022-08-17T03:41:20.732Z,1.63
2022-08-17T03:42:32.188Z,1.56
2022-08-17T03:43:27.406Z,1.70
2022-08-17T03:44:29.978Z,1.82
2022-08-17T03:45:32.752Z,1.94
2022-08-17T03:46:36.253Z,1.72
2022-08-17T03:47:38.829Z,1.64
2022-08-17T03:48:43.022Z,1.91
2022-08-17T03:49:45.580Z,1.72
2022-08-17T03:50:48.250Z,1.69
2022-08-17T03:51:51.227Z,1.81
2022-08-17T03:52:54.064Z,1.97
2022-08-17T03:53:56.770Z,2.10
2022-08-17T03:54:59.341Z,2.04
2022-08-17T03:56:02.109Z,1.74
2022-08-17T03:57:04.684Z,1.62
2022-08-17T03:58:07.466Z,1.72
2022-08-17T03:59:10.114Z,1.94
2022-08-17T04:00:14.333Z,1.66
2022-08-17T04:01:16.940Z,1.83
2022-08-17T04:02:19.775Z,1.60
2022-08-17T04:03:22.334Z,1.38
2022-08-17T04:04:27.654Z,1.72
2022-08-17T04:05:29.337Z,1.68
2022-08-17T04:06:32.090Z,1.74
2022-08-17T04:07:34.548Z,1.79
2022-08-17T04:08:37.114Z,1.69
2022-08-17T04:09:39.885Z,1.88
2022-08-17T04:10:45.201Z,1.82
2022-08-17T04:11:46.983Z,1.88
2022-08-17T04:12:49.993Z,1.82
2022-08-17T04:13:52.821Z,1.87
2022-08-17T04:14:55.493Z,2.05
2022-08-17T04:15:57.959Z,1.79
2022-08-17T04:17:00.835Z,1.78
2022-08-17T04:18:03.294Z,1.40
2022-08-17T04:19:05.862Z,1.55
2022-08-17T04:20:08.536Z,1.76
2022-08-17T04:21:11.206Z,2.10
2022-08-17T04:22:30.152Z,1.47
2022-08-17T04:23:17.875Z,1.80
2022-08-17T04:24:20.640Z,1.96
2022-08-17T04:25:23.212Z,2.25
2022-08-17T04:26:53.837Z,1.62
2022-08-17T04:27:30.099Z,1.60
2022-08-17T04:28:32.972Z,1.58
2022-08-17T04:29:54.165Z,1.90
2022-08-17T04:30:39.946Z,1.87
2022-08-17T04:31:42.714Z,1.57
2022-08-17T04:33:03.939Z,1.86
2022-08-17T04:33:50.005Z,1.96
2022-08-17T04:34:52.774Z,1.95
2022-08-17T04:35:55.546Z,1.92
2022-08-17T04:36:58.216Z,2.16
2022-08-17T04:38:00.983Z,1.85
2022-08-17T04:39:03.861Z,1.55
2022-08-17T04:40:06.617Z,1.82
2022-08-17T04:41:09.305Z,1.77
2022-08-17T04:42:12.070Z,1.75
2022-08-17T04:43:14.746Z,1.70
2022-08-17T04:44:27.252Z,1.91
2022-08-17T04:45:23.058Z,1.97
2022-08-17T04:46:26.853Z,1.56
2022-08-17T04:47:29.421Z,1.82
2022-08-17T04:48:35.969Z,1.92
2022-08-17T04:49:36.396Z,1.59
2022-08-17T04:50:39.175Z,1.63
2022-08-17T04:51:45.570Z,1.85
2022-08-17T04:52:46.043Z,1.92
2022-08-17T04:53:54.022Z,1.87
2022-08-17T04:54:52.820Z,2.08
2022-08-17T04:55:55.692Z,1.69
2022-08-17T04:56:58.369Z,1.77
2022-08-17T04:58:01.039Z,1.54
2022-08-17T04:59:03.492Z,1.61
2022-08-17T05:00:06.168Z,1.63
2022-08-17T05:01:09.003Z,1.57
2022-08-17T05:02:11.816Z,1.53
2022-08-17T05:03:14.384Z,1.56
2022-08-17T05:04:33.536Z,1.62
2022-08-17T05:05:21.151Z,1.90
2022-08-17T05:06:23.843Z,1.76
2022-08-17T05:07:31.289Z,1.56
2022-08-17T05:08:30.801Z,1.53
2022-08-17T05:09:33.594Z,1.45
2022-08-17T05:10:36.245Z,1.62
2022-08-17T05:11:40.458Z,1.55
2022-08-17T05:12:44.654Z,1.71
2022-08-17T05:13:47.323Z,2.06
2022-08-17T05:14:49.900Z,1.71
2022-08-17T05:15:52.561Z,1.89
2022-08-17T05:16:55.339Z,1.59
2022-08-17T05:17:57.900Z,1.61
2022-08-17T05:19:00.573Z,1.67
2022-08-17T05:20:03.343Z,1.88
2022-08-17T05:21:06.011Z,1.82
2022-08-17T05:22:08.684Z,1.92
2022-08-17T05:23:11.360Z,1.77
2022-08-17T05:24:42.728Z,1.75
2022-08-17T05:25:18.335Z,1.51
2022-08-17T05:26:26.445Z,1.51
2022-08-17T05:27:29.309Z,1.61
2022-08-17T05:28:30.841Z,1.59
2022-08-17T05:29:35.781Z,1.59
2022-08-17T05:30:37.827Z,1.81
2022-08-17T05:31:40.391Z,1.92
2022-08-17T05:32:43.064Z,1.75
2022-08-17T05:33:46.291Z,1.67
2022-08-17T05:34:49.028Z,1.90
2022-08-17T05:35:51.791Z,1.69
2022-08-17T05:36:54.551Z,1.86
2022-08-17T05:37:57.243Z,1.83
2022-08-17T05:39:00.320Z,1.85
2022-08-17T05:40:02.995Z,1.58
2022-08-17T05:41:05.851Z,1.62
2022-08-17T05:42:08.323Z,1.81
2022-08-17T05:43:10.995Z,1.81
2022-08-17T05:44:13.681Z,1.88
2022-08-17T05:45:16.240Z,1.92
2022-08-17T05:46:20.354Z,1.96
2022-08-17T05:47:22.891Z,1.52
2022-08-17T05:48:35.436Z,1.68
2022-08-17T05:49:29.672Z,2.04
2022-08-17T05:50:32.243Z,2.42
2022-08-17T05:51:34.912Z,1.88
2022-08-17T05:52:37.585Z,1.74
2022-08-17T05:53:40.354Z,1.77
2022-08-17T05:54:44.554Z,2.16
2022-08-17T05:55:47.736Z,2.07
2022-08-17T05:56:51.422Z,2.08
2022-08-17T05:57:56.122Z,2.01
2022-08-17T05:58:59.209Z,2.36
2022-08-17T06:00:02.926Z,1.78
2022-08-17T06:01:05.837Z,1.69
2022-08-17T06:02:09.061Z,2.13
2022-08-17T06:03:12.147Z,2.02
2022-08-17T06:04:15.225Z,1.93
2022-08-17T06:05:18.506Z,1.70
2022-08-17T06:06:31.577Z,1.77
2022-08-17T06:07:33.791Z,1.99
2022-08-17T06:08:36.373Z,2.03
2022-08-17T06:09:38.930Z,1.89
2022-08-17T06:10:41.604Z,2.35
2022-08-17T06:11:44.278Z,2.28
2022-08-17T06:12:46.888Z,2.07
2022-08-17T06:13:49.615Z,1.86
2022-08-17T06:14:52.485Z,1.72
2022-08-17T06:15:55.376Z,1.80
2022-08-17T06:16:58.043Z,1.88
2022-08-17T06:18:00.804Z,1.69
2022-08-17T06:19:03.785Z,1.65
2022-08-17T06:20:06.656Z,1.78
2022-08-17T06:21:10.051Z,1.74
2022-08-17T06:22:12.914Z,1.85
2022-08-17T06:23:15.793Z,1.95
2022-08-17T06:24:18.665Z,1.87
2022-08-17T06:25:21.337Z,1.93
2022-08-17T06:26:25.872Z,2.11
2022-08-17T06:27:28.315Z,1.97
2022-08-17T06:28:31.081Z,1.73
2022-08-17T06:29:33.851Z,1.53
2022-08-17T06:30:57.508Z,1.99
2022-08-17T06:31:40.832Z,1.95
2022-08-17T06:32:43.707Z,1.86
2022-08-17T06:33:46.484Z,2.02
2022-08-17T06:34:49.153Z,2.05
2022-08-17T06:35:52.020Z,1.88
2022-08-17T06:36:55.924Z,2.44
2022-08-17T06:37:58.903Z,2.41
2022-08-17T06:39:01.773Z,2.30
2022-08-17T06:40:04.703Z,2.48
2022-08-17T06:41:07.623Z,2.13
2022-08-17T06:42:10.506Z,2.12
2022-08-17T06:43:14.846Z,2.01
2022-08-17T06:44:50.019Z,2.09
2022-08-17T06:45:22.091Z,2.39
2022-08-17T06:46:24.971Z,2.52
2022-08-17T06:47:28.646Z,2.22
2022-08-17T06:48:31.863Z,1.95
2022-08-17T06:49:34.625Z,1.64
2022-08-17T06:50:37.208Z,1.97
2022-08-17T06:51:39.863Z,1.65
2022-08-17T06:52:46.520Z,2.02
2022-08-17T06:53:47.126Z,2.09
2022-08-17T06:54:50.791Z,1.94
2022-08-17T06:55:53.794Z,2.10
2022-08-17T06:56:57.077Z,2.02
2022-08-17T06:58:00.258Z,2.26
2022-08-17T06:59:05.078Z,2.29
2022-08-17T07:00:07.859Z,1.83
2022-08-17T07:01:11.739Z,2.46
2022-08-17T07:02:14.728Z,2.82
2022-08-17T07:03:17.711Z,2.54
2022-08-17T07:04:20.783Z,2.50
2022-08-17T07:05:23.669Z,2.95
2022-08-17T07:06:26.432Z,2.67
2022-08-17T07:07:29.407Z,2.19
2022-08-17T07:08:34.669Z,2.14
2022-08-17T07:09:36.511Z,2.11
2022-08-17T07:10:39.465Z,2.02
2022-08-17T07:11:42.349Z,2.32
2022-08-17T07:12:45.547Z,2.29
2022-08-17T07:13:51.404Z,2.22
2022-08-17T07:14:53.009Z,2.35
2022-08-17T07:15:57.163Z,2.09
2022-08-17T07:17:00.196Z,2.29
2022-08-17T07:18:03.451Z,2.51
2022-08-17T07:19:06.356Z,2.83
2022-08-17T07:20:09.648Z,2.72
2022-08-17T07:21:17.499Z,2.48
2022-08-17T07:22:17.850Z,2.19
2022-08-17T07:23:21.024Z,2.48
2022-08-17T07:24:29.839Z,2.35
2022-08-17T07:25:28.210Z,2.83
2022-08-17T07:26:31.304Z,2.74
2022-08-17T07:27:34.058Z,3.12
2022-08-17T07:28:36.944Z,3.67
2022-08-17T07:29:39.807Z,3.05
2022-08-17T07:30:45.549Z,2.85
2022-08-17T07:31:47.403Z,3.09
2022-08-17T07:32:50.481Z,3.13
2022-08-17T07:33:53.356Z,3.15
2022-08-17T07:34:56.539Z,2.56
2022-08-17T07:35:59.820Z,2.65
2022-08-17T07:37:02.798Z,2.58
2022-08-17T07:38:05.982Z,2.48
2022-08-17T07:39:10.597Z,2.43
2022-08-17T07:40:16.440Z,2.08
2022-08-17T07:41:18.605Z,2.08
2022-08-17T07:42:21.578Z,2.62
2022-08-17T07:43:24.354Z,2.68
2022-08-17T07:44:27.457Z,2.34
2022-08-17T07:45:30.409Z,2.02
2022-08-17T07:46:33.689Z,2.20
2022-08-17T07:47:36.674Z,2.37
2022-08-17T07:48:39.641Z,2.15
2022-08-17T07:49:42.617Z,2.14
2022-08-17T07:50:49.463Z,2.17
2022-08-17T07:51:51.028Z,1.88
2022-08-17T07:52:54.021Z,2.13
2022-08-17T07:54:13.111Z,2.18
2022-08-17T07:55:01.904Z,2.73
2022-08-17T07:56:04.883Z,2.70
2022-08-17T07:57:08.167Z,2.08
2022-08-17T07:58:11.245Z,2.01
2022-08-17T07:59:14.427Z,2.16
2022-08-17T08:00:17.508Z,2.42
2022-08-17T08:01:20.435Z,1.98
2022-08-17T08:02:25.197Z,1.91
2022-08-17T08:03:28.575Z,2.31
2022-08-17T08:05:49.830Z,2.33
2022-08-17T08:06:40.284Z,2.83
2022-08-17T08:07:43.208Z,2.89
2022-08-17T08:08:46.245Z,2.97
2022-08-17T08:09:49.212Z,3.15
2022-08-17T08:10:52.404Z,3.41
2022-08-17T08:11:55.171Z,3.35
2022-08-17T08:12:57.942Z,3.65
2022-08-17T08:14:01.123Z,3.93
2022-08-17T08:15:03.901Z,3.63
2022-08-17T08:16:06.673Z,3.91
2022-08-17T08:17:09.574Z,4.02
2022-08-17T08:18:12.213Z,3.75
2022-08-17T08:19:18.218Z,4.28
2022-08-17T08:20:47.627Z,4.38
2022-08-17T08:21:24.012Z,3.70
2022-08-17T08:22:26.886Z,3.42
2022-08-17T08:23:29.658Z,3.68
2022-08-17T08:24:32.741Z,3.39
2022-08-17T08:25:35.713Z,3.30
2022-08-17T08:26:39.508Z,2.77
2022-08-17T08:27:42.739Z,2.78
2022-08-17T08:28:45.569Z,2.85
2022-08-17T08:29:48.443Z,2.96
2022-08-17T08:30:51.522Z,2.97
2022-08-17T08:31:55.008Z,2.65
2022-08-17T08:32:57.987Z,2.65
2022-08-17T08:34:01.066Z,2.82
2022-08-17T08:35:04.151Z,2.55
2022-08-17T08:36:07.390Z,2.38
2022-08-17T08:37:16.494Z,2.87
2022-08-17T08:38:15.021Z,2.87
2022-08-17T08:39:18.102Z,3.34
2022-08-17T08:40:21.194Z,2.89
2022-08-17T08:41:24.159Z,2.89
2022-08-17T08:42:27.242Z,3.38
2022-08-17T08:43:30.013Z,2.97
2022-08-17T08:45:00.011Z,3.02
2022-08-17T08:45:37.702Z,3.36
2022-08-17T08:46:40.477Z,3.37
2022-08-17T08:47:43.363Z,3.13
2022-08-17T08:48:56.665Z,3.50
2022-08-17T08:50:06.950Z,3.68
2022-08-17T08:50:56.277Z,3.29
2022-08-17T08:52:00.069Z,3.46
2022-08-17T08:53:03.048Z,3.69
2022-08-17T08:54:06.539Z,3.98
2022-08-17T08:55:09.722Z,4.35
2022-08-17T08:56:12.696Z,3.17
2022-08-17T08:57:34.154Z,3.32
2022-08-17T08:58:31.789Z,3.22
2022-08-17T08:59:24.801Z,3.44
2022-08-17T09:00:27.894Z,3.61
2022-08-17T09:01:30.812Z,3.06
2022-08-17T09:02:34.789Z,2.72
2022-08-17T09:03:52.357Z,2.85
2022-08-17T09:05:10.528Z,3.14
2022-08-17T09:05:46.765Z,3.34
2022-08-17T09:06:51.172Z,3.08
2022-08-17T09:07:57.333Z,2.92
2022-08-17T09:08:58.763Z,3.17
2022-08-17T09:10:01.945Z,2.81
2022-08-17T09:11:05.129Z,3.44
2022-08-17T09:12:07.799Z,3.31
2022-08-17T09:13:11.019Z,3.13
2022-08-17T09:14:21.530Z,2.88
2022-08-17T09:15:19.287Z,3.17
2022-08-17T09:16:22.366Z,3.41
2022-08-17T09:17:25.144Z,3.81
2022-08-17T09:19:01.089Z,4.82
2022-08-17T09:19:32.223Z,13.80
2022-08-17T09:20:34.992Z,9.25
2022-08-17T09:21:37.997Z,5.30
2022-08-17T09:22:42.376Z,4.14
2022-08-17T09:23:45.149Z,3.63
2022-08-17T09:24:47.927Z,3.69
2022-08-17T09:25:50.902Z,3.92
2022-08-17T09:26:53.775Z,3.90
2022-08-17T09:27:56.571Z,3.58
2022-08-17T09:29:00.863Z,3.64
2022-08-17T09:30:03.636Z,3.92
2022-08-17T09:31:06.606Z,3.91
2022-08-17T09:32:09.589Z,3.62
2022-08-17T09:33:12.458Z,3.88
2022-08-17T09:34:15.746Z,3.62
2022-08-17T09:35:18.824Z,3.98
2022-08-17T09:36:21.905Z,3.42
2022-08-17T09:37:24.778Z,3.36
2022-08-17T09:38:31.861Z,3.81
2022-08-17T09:39:32.029Z,3.48
2022-08-17T09:40:34.835Z,4.12
2022-08-17T09:41:37.614Z,4.50
2022-08-17T09:42:40.274Z,4.51
2022-08-17T09:43:43.154Z,4.37
2022-08-17T09:44:45.818Z,4.12
2022-08-17T09:45:48.591Z,4.58
2022-08-17T09:46:51.467Z,4.34
2022-08-17T09:47:54.341Z,4.62
2022-08-17T09:48:58.653Z,4.51
2022-08-17T09:50:01.418Z,5.00
2022-08-17T09:51:06.466Z,4.78
2022-08-17T09:52:08.501Z,4.47
2022-08-17T09:53:11.376Z,4.45
2022-08-17T09:54:37.556Z,3.81
2022-08-17T09:55:18.556Z,3.75
2022-08-17T09:56:21.230Z,3.52
2022-08-17T09:57:32.153Z,3.42
2022-08-17T09:58:29.227Z,4.11
2022-08-17T09:59:38.372Z,4.03
2022-08-17T10:00:36.411Z,3.38
2022-08-17T10:01:39.492Z,3.71
2022-08-17T10:02:42.362Z,4.61
2022-08-17T10:03:45.136Z,4.91
2022-08-17T10:04:47.813Z,5.30
2022-08-17T10:05:50.785Z,5.83
2022-08-17T10:06:55.398Z,6.25
2022-08-17T10:07:58.172Z,6.32
2022-08-17T10:09:01.046Z,6.13
2022-08-17T10:10:03.720Z,6.10
2022-08-17T10:11:06.490Z,5.95
2022-08-17T10:12:09.365Z,5.64
2022-08-17T10:13:12.032Z,5.42
2022-08-17T10:14:37.412Z,5.14
2022-08-17T10:15:19.216Z,4.52
2022-08-17T10:16:21.885Z,4.34
2022-08-17T10:17:24.663Z,4.46
2022-08-17T10:18:31.987Z,4.78
2022-08-17T10:19:31.752Z,4.86
2022-08-17T10:20:34.521Z,4.35
2022-08-17T10:21:37.486Z,4.70
2022-08-17T10:22:40.263Z,5.07
2022-08-17T10:23:43.240Z,4.98
2022-08-17T10:25:21.359Z,4.32
2022-08-17T10:25:55.111Z,4.09
2022-08-17T10:26:57.044Z,4.40
2022-08-17T10:27:59.049Z,4.36
2022-08-17T10:29:01.713Z,4.38
2022-08-17T10:30:04.475Z,4.10
2022-08-17T10:32:11.762Z,4.35
2022-08-17T10:33:14.431Z,4.28
2022-08-17T10:34:17.307Z,4.31
2022-08-17T10:35:20.081Z,4.52
2022-08-17T10:36:22.811Z,4.69
2022-08-17T10:37:25.629Z,4.62
2022-08-17T10:38:28.291Z,4.68
2022-08-17T10:39:31.118Z,4.84
2022-08-17T10:40:33.837Z,4.78
2022-08-17T10:41:40.208Z,5.79
2022-08-17T10:42:40.918Z,5.92
2022-08-17T10:43:43.586Z,5.72
2022-08-17T10:44:47.679Z,5.53
2022-08-17T10:45:50.465Z,5.38
2022-08-17T10:46:54.874Z,5.31
2022-08-17T10:48:01.309Z,5.44
2022-08-17T10:49:01.857Z,5.84
2022-08-17T10:50:04.519Z,6.02
2022-08-17T10:51:07.295Z,5.91
2022-08-17T10:52:10.066Z,6.08
2022-08-17T10:53:16.657Z,5.44
2022-08-17T10:54:17.042Z,5.46
2022-08-17T10:55:19.816Z,5.62
2022-08-17T10:56:22.801Z,5.93
2022-08-17T10:57:25.565Z,5.92
2022-08-17T10:58:28.337Z,6.06
2022-08-17T10:59:31.107Z,6.03
2022-08-17T11:00:34.043Z,5.88
2022-08-17T11:01:36.859Z,5.48
2022-08-17T11:02:39.939Z,5.65
2022-08-17T11:03:42.708Z,5.59
2022-08-17T11:04:45.383Z,5.62
2022-08-17T11:05:48.049Z,5.68
2022-08-17T11:06:50.824Z,5.40
2022-08-17T11:07:53.602Z,5.45
2022-08-17T11:08:56.370Z,5.46
2022-08-17T11:09:59.033Z,5.38
2022-08-17T11:11:01.809Z,5.15
2022-08-17T11:12:04.581Z,5.80
2022-08-17T11:13:07.351Z,5.42
2022-08-17T11:14:10.129Z,5.85
2022-08-17T11:15:13.206Z,5.57
2022-08-17T11:16:15.977Z,5.49
2022-08-17T11:17:18.645Z,5.25
2022-08-17T11:18:21.929Z,5.28
2022-08-17T11:19:24.701Z,5.29
2022-08-17T11:20:27.575Z,5.65
2022-08-17T11:21:30.246Z,5.90
2022-08-17T11:22:33.780Z,6.14
2022-08-17T11:23:36.609Z,6.63
2022-08-17T11:24:39.279Z,7.05
2022-08-17T11:25:43.178Z,8.07
2022-08-17T11:26:45.948Z,9.33
2022-08-17T11:27:48.824Z,12.20
2022-08-17T11:28:52.818Z,10.49
2022-08-17T11:30:01.410Z,7.47
2022-08-17T11:31:00.318Z,6.40
2022-08-17T11:32:03.293Z,6.33
2022-08-17T11:33:06.072Z,6.40
2022-08-17T11:34:10.066Z,6.29
2022-08-17T11:35:13.145Z,6.79
2022-08-17T11:36:16.326Z,6.28
2022-08-17T11:37:19.302Z,6.20
2022-08-17T11:38:22.281Z,5.88
2022-08-17T11:39:25.283Z,5.77
2022-08-17T11:40:28.337Z,6.43
2022-08-17T11:41:31.115Z,6.54
2022-08-17T11:42:34.189Z,6.15
2022-08-17T11:43:40.913Z,6.58
2022-08-17T11:44:41.063Z,6.34
2022-08-17T11:45:43.738Z,6.23
2022-08-17T11:46:51.875Z,6.39
2022-08-17T11:48:16.011Z,5.71
2022-08-17T11:48:55.428Z,5.69
2022-08-17T11:49:58.405Z,5.95
2022-08-17T11:51:01.384Z,6.26
2022-08-17T11:52:04.460Z,6.68
2022-08-17T11:53:07.541Z,8.00
2022-08-17T11:55:34.714Z,7.71
2022-08-17T11:56:19.649Z,7.70
2022-08-17T11:57:24.055Z,7.41
2022-08-17T11:58:27.054Z,7.14
2022-08-17T11:59:29.707Z,7.08
2022-08-17T12:00:32.579Z,7.66
2022-08-17T12:01:35.249Z,7.38
2022-08-17T12:02:38.123Z,7.87
2022-08-17T12:03:40.899Z,8.05
2022-08-17T12:04:43.737Z,7.78
2022-08-17T12:05:46.647Z,7.67
2022-08-17T12:06:49.432Z,7.94
2022-08-17T12:07:52.329Z,8.12
2022-08-17T12:08:55.416Z,8.58
2022-08-17T12:09:58.859Z,7.88
2022-08-17T12:11:01.535Z,8.36
2022-08-17T12:12:13.733Z,7.47
2022-08-17T12:13:08.715Z,7.24
2022-08-17T12:14:16.986Z,6.90
2022-08-17T12:15:15.893Z,7.15
2022-08-17T12:16:18.872Z,7.02
2022-08-17T12:17:40.837Z,7.54
2022-08-17T12:18:27.183Z,7.46
2022-08-17T12:19:29.960Z,6.79
2022-08-17T12:20:32.744Z,6.51
2022-08-17T12:21:35.397Z,6.45
2022-08-17T12:22:38.270Z,6.16
2022-08-17T12:23:40.943Z,5.93
2022-08-17T12:24:45.350Z,5.87
2022-08-17T12:25:48.136Z,6.12
2022-08-17T12:26:50.894Z,5.89
2022-08-17T12:28:06.237Z,5.95
2022-08-17T12:28:58.078Z,6.06
2022-08-17T12:30:03.409Z,5.98
2022-08-17T12:31:06.396Z,6.87
2022-08-17T12:32:09.320Z,6.81
2022-08-17T12:33:12.359Z,6.28
2022-08-17T12:34:15.113Z,6.32
2022-08-17T12:35:17.882Z,6.58
2022-08-17T12:36:20.669Z,7.23
2022-08-17T12:37:23.330Z,6.53
2022-08-17T12:38:32.585Z,7.45
2022-08-17T12:39:30.465Z,7.38
2022-08-17T12:40:34.725Z,6.97
2022-08-17T12:41:37.385Z,6.71
2022-08-17T12:42:40.056Z,6.28
2022-08-17T12:43:42.829Z,7.01
2022-08-17T12:44:50.515Z,7.04
2022-08-17T12:45:50.113Z,7.54
2022-08-17T12:46:53.173Z,6.24
2022-08-17T12:47:56.169Z,6.98
2022-08-17T12:49:00.244Z,6.14
2022-08-17T12:50:03.145Z,7.04
2022-08-17T12:51:05.820Z,7.22
2022-08-17T12:52:08.526Z,6.70
2022-08-17T12:53:11.259Z,6.85
2022-08-17T12:54:14.035Z,6.91
2022-08-17T12:55:16.702Z,6.92
2022-08-17T12:56:19.473Z,6.77
2022-08-17T12:57:22.245Z,6.62
2022-08-17T12:58:25.021Z,6.91
2022-08-17T12:59:29.747Z,6.73
2022-08-17T13:00:32.509Z,6.57
2022-08-17T13:01:35.415Z,6.49
2022-08-17T13:02:38.358Z,6.43
2022-08-17T13:03:41.132Z,6.62
2022-08-17T13:04:43.905Z,7.10
2022-08-17T13:05:46.571Z,7.32
2022-08-17T13:06:49.245Z,6.97
2022-08-17T13:07:52.357Z,6.91
2022-08-17T13:08:55.300Z,7.84
2022-08-17T13:09:57.970Z,7.45
2022-08-17T13:11:00.743Z,6.91
2022-08-17T13:12:05.042Z,6.53
2022-08-17T13:13:07.825Z,6.13
2022-08-17T13:14:10.595Z,5.79
2022-08-17T13:15:13.467Z,5.38
2022-08-17T13:16:16.453Z,5.55
2022-08-17T13:17:19.423Z,5.90
2022-08-17T13:18:22.401Z,5.49
2022-08-17T13:19:40.150Z,5.38
2022-08-17T13:20:29.889Z,6.53
2022-08-17T13:21:32.571Z,6.32
2022-08-17T13:22:35.440Z,5.98
2022-08-17T13:23:38.210Z,6.12
2022-08-17T13:24:40.882Z,6.28
2022-08-17T13:25:43.547Z,6.31
2022-08-17T13:26:46.325Z,6.52
2022-08-17T13:27:49.404Z,6.18
2022-08-17T13:28:52.478Z,6.32
2022-08-17T13:29:55.353Z,6.45
2022-08-17T13:30:58.237Z,6.53
2022-08-17T13:32:04.678Z,6.62
2022-08-17T13:33:05.719Z,6.53
2022-08-17T13:34:09.412Z,6.01
2022-08-17T13:35:29.593Z,6.39
2022-08-17T13:36:20.062Z,6.49
2022-08-17T13:37:23.217Z,6.75
2022-08-17T13:38:26.133Z,6.82
2022-08-17T13:39:29.208Z,6.85
2022-08-17T13:40:32.185Z,7.05
2022-08-17T13:41:34.863Z,7.44
2022-08-17T13:42:52.141Z,7.08
2022-08-17T13:43:41.835Z,7.52
2022-08-17T13:44:44.606Z,7.94
2022-08-17T13:45:50.878Z,7.96
2022-08-17T13:46:52.525Z,7.79
2022-08-17T13:47:56.311Z,8.05
2022-08-17T13:48:59.282Z,7.91
2022-08-17T13:50:02.111Z,8.35
2022-08-17T13:51:04.930Z,7.86
2022-08-17T13:52:07.704Z,7.74
2022-08-17T13:53:10.474Z,8.05
2022-08-17T13:54:13.243Z,8.18
2022-08-17T13:55:16.014Z,8.63
2022-08-17T13:56:33.479Z,8.10
2022-08-17T13:57:23.202Z,7.94
2022-08-17T13:58:26.076Z,7.65
2022-08-17T13:59:36.375Z,8.38
2022-08-17T14:00:33.157Z,7.77
2022-08-17T14:01:36.104Z,8.59
2022-08-17T14:02:38.905Z,7.91
2022-08-17T14:03:41.573Z,8.66